Time;durP1;ratioP1;P1;durP2;ratioP2;P2;SDS_P1;SDS_P2;PMS_P1;PMS_P2;Temp;Humidity;BMP_temperature;BMP_pressure;BME280_temperature;BME280_humidity;BME280_pressure;Samples;Min_cycle;Max_cycle;Signal;HPM_P1;HPM_P2
2023/03/29 00:00:26;;;;;;;3.40;1.77;;;6.90;99.90;;;;;;5034765;28;20093;-79
2023/03/29 00:02:55;;;;;;;3.22;1.95;;;6.90;99.90;;;;;;5035455;28;20136;-80
2023/03/29 00:05:21;;;;;;;3.58;1.30;;;6.90;99.90;;;;;;5054472;28;20017;-80
2023/03/29 00:07:53;;;;;;;4.32;1.63;;;6.90;99.90;;;;;;5048859;28;20231;-79
2023/03/29 00:10:21;;;;;;;3.95;1.58;;;6.90;99.90;;;;;;5034470;28;20018;-79
2023/03/29 00:12:47;;;;;;;2.08;1.35;;;6.90;99.90;;;;;;5034191;28;20525;-79
2023/03/29 00:15:13;;;;;;;2.47;1.55;;;6.90;99.90;;;;;;5035703;28;20524;-80
2023/03/29 00:17:39;;;;;;;3.47;1.52;;;6.90;99.90;;;;;;5037778;28;20017;-79
2023/03/29 00:20:08;;;;;;;3.63;1.80;;;7.00;99.90;;;;;;5034494;28;20032;-79
2023/03/29 00:22:36;;;;;;;2.80;1.38;;;6.90;99.90;;;;;;5035506;28;20068;-80
2023/03/29 00:25:02;;;;;;;4.88;1.67;;;6.90;99.90;;;;;;5052339;28;20021;-80
2023/03/29 00:27:28;;;;;;;3.33;1.60;;;6.90;99.90;;;;;;5055355;28;20036;-80
2023/03/29 00:29:55;;;;;;;3.60;2.22;;;6.90;99.90;;;;;;5044662;28;20032;-80
2023/03/29 00:32:21;;;;;;;4.63;1.77;;;6.90;99.90;;;;;;5034038;28;20289;-81
2023/03/29 00:34:49;;;;;;;3.15;1.60;;;6.90;99.90;;;;;;5040574;28;20035;-80
2023/03/29 00:37:18;;;;;;;3.13;1.38;;;6.90;99.90;;;;;;5048524;28;20552;-81
2023/03/29 00:39:44;;;;;;;1.63;1.15;;;6.90;99.90;;;;;;5055169;28;20033;-80
2023/03/29 00:42:16;;;;;;;2.55;1.58;;;6.90;99.90;;;;;;5053830;28;20064;-80
2023/03/29 00:45:06;;;;;;;2.15;1.30;;;6.90;99.90;;;;;;5042517;28;20037;-80
2023/03/29 00:47:35;;;;;;;3.92;1.63;;;6.90;99.90;;;;;;5051155;28;20025;-81
2023/03/29 00:50:24;;;;;;;4.18;1.90;;;6.90;99.90;;;;;;5053723;28;20032;-80
2023/03/29 00:53:16;;;;;;;2.10;1.23;;;7.00;99.90;;;;;;5053177;28;20098;-80
2023/03/29 00:55:51;;;;;;;2.28;1.02;;;7.00;99.90;;;;;;5025715;28;20076;-79
2023/03/29 00:58:30;;;;;;;3.58;1.85;;;7.00;99.90;;;;;;5043221;28;20111;-80
2023/03/29 01:01:09;;;;;;;2.47;1.42;;;7.00;99.90;;;;;;5053676;28;20037;-80
2023/03/29 01:03:45;;;;;;;4.38;2.05;;;7.00;99.90;;;;;;5047758;28;20026;-80
2023/03/29 01:06:13;;;;;;;1.77;1.50;;;6.90;99.90;;;;;;5034879;28;20029;-80
2023/03/29 01:09:00;;;;;;;;;;;7.00;99.90;;;;;;5046851;28;20057;-79
2023/03/29 01:11:37;;;;;;;2.00;1.35;;;7.10;99.90;;;;;;5054478;28;19908;-81
2023/03/29 01:14:15;;;;;;;2.83;1.30;;;7.10;99.90;;;;;;5051807;28;20021;-80
2023/03/29 01:16:41;;;;;;;;;;;7.10;99.90;;;;;;5055247;28;20041;-80
2023/03/29 01:19:10;;;;;;;10.38;1.98;;;7.10;99.90;;;;;;5051563;28;19915;-80
2023/03/29 01:21:50;;;;;;;2.95;1.70;;;7.10;99.90;;;;;;5051248;28;20124;-79
2023/03/29 01:24:53;;;;;;;2.33;1.40;;;7.10;99.90;;;;;;5054413;28;20033;-80
2023/03/29 01:27:43;;;;;;;3.15;1.58;;;7.10;99.90;;;;;;5042966;28;20517;-79
2023/03/29 01:30:17;;;;;;;2.75;1.60;;;7.10;99.90;;;;;;5051455;28;20035;-79
2023/03/29 01:32:59;;;;;;;2.38;1.48;;;7.20;99.90;;;;;;5048710;28;20079;-79
2023/03/29 01:35:38;;;;;;;2.05;1.60;;;7.20;99.90;;;;;;5032981;28;20040;-79
2023/03/29 01:38:17;;;;;;;5.35;1.58;;;7.20;99.90;;;;;;5035334;28;20021;-80
2023/03/29 01:40:43;;;;;;;3.83;1.42;;;7.20;99.90;;;;;;5053060;28;20568;-79
2023/03/29 01:43:35;;;;;;;3.35;1.52;;;7.30;99.90;;;;;;5050502;28;20211;-79
2023/03/29 01:46:27;;;;;;;1.65;1.55;;;7.30;99.90;;;;;;5052760;28;20037;-80
2023/03/29 01:49:03;;;;;;;2.35;1.73;;;7.30;99.90;;;;;;5033052;28;20171;-80
2023/03/29 01:52:13;;;;;;;1.95;1.33;;;7.30;99.90;;;;;;5033932;28;20056;-80
2023/03/29 01:54:53;;;;;;;10.30;1.55;;;7.30;99.90;;;;;;5010242;28;20091;-79
2023/03/29 01:57:21;;;;;;;2.40;1.60;;;7.40;99.90;;;;;;5010506;28;20508;-80
2023/03/29 01:59:48;;;;;;;;;;;7.40;99.90;;;;;;5030294;28;20264;-79
2023/03/29 02:02:17;;;;;;;8.75;1.70;;;7.40;99.90;;;;;;5046675;28;19913;-79
2023/03/29 02:04:48;;;;;;;9.77;1.73;;;7.40;99.90;;;;;;5033467;28;20390;-79
2023/03/29 02:07:16;;;;;;;4.50;1.67;;;7.50;99.90;;;;;;5040084;28;20070;-79
2023/03/29 02:09:43;;;;;;;2.80;1.75;;;7.50;99.90;;;;;;5033526;28;20022;-79
2023/03/29 02:12:11;;;;;;;6.10;2.10;;;7.50;99.90;;;;;;5036545;28;20028;-79
2023/03/29 02:14:37;;;;;;;4.47;1.93;;;7.50;99.90;;;;;;5052216;28;20029;-80
2023/03/29 02:17:23;;;;;;;4.30;1.70;;;7.50;99.90;;;;;;5049725;28;20052;-80
2023/03/29 02:19:53;;;;;;;4.28;1.50;;;7.50;99.90;;;;;;5052072;28;20370;-79
2023/03/29 02:22:32;;;;;;;2.65;1.75;;;7.60;99.90;;;;;;5044063;28;20116;-80
2023/03/29 02:25:03;;;;;;;4.05;1.73;;;7.60;99.90;;;;;;5033406;28;20090;-80
2023/03/29 02:27:29;;;;;;;3.35;1.33;;;7.60;99.90;;;;;;5032322;28;20386;-80
2023/03/29 02:29:56;;;;;;;7.03;1.80;;;7.60;99.90;;;;;;5032129;28;20021;-80
2023/03/29 02:32:32;;;;;;;4.28;1.98;;;7.60;99.90;;;;;;5033746;28;20037;-78
2023/03/29 02:35:11;;;;;;;2.20;1.33;;;7.70;99.90;;;;;;5033033;28;20053;-78
2023/03/29 02:37:41;;;;;;;2.13;1.73;;;7.70;99.90;;;;;;5031771;28;20037;-78
2023/03/29 02:40:11;;;;;;;5.55;2.38;;;7.70;99.90;;;;;;5033127;28;20042;-79
2023/03/29 02:42:42;;;;;;;4.72;2.00;;;7.70;99.90;;;;;;5033042;28;20490;-79
2023/03/29 02:45:11;;;;;;;4.45;2.00;;;7.70;99.90;;;;;;5032836;28;20076;-78
2023/03/29 02:47:50;;;;;;;4.43;1.92;;;7.80;99.90;;;;;;5039543;28;20041;-78
2023/03/29 02:50:17;;;;;;;4.03;2.30;;;7.80;99.90;;;;;;5051752;28;20024;-79
2023/03/29 02:52:55;;;;;;;6.88;2.17;;;7.70;99.90;;;;;;5052802;28;20119;-79
2023/03/29 02:55:24;;;;;;;4.53;1.92;;;7.80;99.90;;;;;;5052761;28;20128;-79
2023/03/29 02:57:49;;;;;;;6.40;2.30;;;7.80;99.90;;;;;;5036127;28;20494;-79
2023/03/29 03:00:17;;;;;;;7.18;2.03;;;7.70;99.90;;;;;;5032875;28;20033;-79
2023/03/29 03:02:45;;;;;;;4.30;2.47;;;7.80;99.90;;;;;;5031123;28;20463;-79
2023/03/29 03:05:11;;;;;;;;;;;7.80;99.90;;;;;;5033361;28;20022;-79
2023/03/29 03:07:39;;;;;;;7.35;1.98;;;7.80;99.90;;;;;;5045343;28;19912;-80
2023/03/29 03:10:07;;;;;;;5.40;2.40;;;7.80;99.90;;;;;;5051343;28;20056;-78
2023/03/29 03:12:33;;;;;;;;;;;7.90;99.90;;;;;;5052844;28;20040;-80
2023/03/29 03:14:58;;;;;;;2.47;1.70;;;7.90;99.90;;;;;;5055146;28;19931;-80
2023/03/29 03:17:24;;;;;;;3.00;2.10;;;7.90;99.90;;;;;;5054398;28;20033;-80
2023/03/29 03:19:50;;;;;;;4.57;1.88;;;7.80;99.90;;;;;;5055389;28;20037;-80
2023/03/29 03:22:15;;;;;;;2.85;2.00;;;7.80;99.90;;;;;;5056531;28;20033;-79
2023/03/29 03:24:41;;;;;;;4.55;1.80;;;7.80;99.90;;;;;;5052793;28;20025;-79
2023/03/29 03:27:07;;;;;;;3.75;1.63;;;7.80;99.90;;;;;;5055402;28;20032;-79
2023/03/29 03:29:34;;;;;;;9.27;2.15;;;7.80;99.90;;;;;;5056397;28;20029;-78
2023/03/29 03:31:59;;;;;;;3.70;1.77;;;7.80;99.90;;;;;;5049652;28;20029;-78
2023/03/29 03:34:26;;;;;;;7.25;1.83;;;7.80;99.90;;;;;;5040589;28;20032;-79
2023/03/29 03:36:54;;;;;;;3.05;2.00;;;7.90;99.90;;;;;;5035438;28;20509;-80
2023/03/29 03:39:21;;;;;;;5.72;2.25;;;7.90;99.90;;;;;;5034980;28;20540;-81
2023/03/29 03:41:47;;;;;;;2.05;1.52;;;7.90;99.90;;;;;;5045172;28;20032;-80
2023/03/29 03:44:13;;;;;;;2.97;1.98;;;7.90;99.90;;;;;;5049690;28;20106;-80
2023/03/29 03:46:38;;;;;;;5.63;2.45;;;7.90;99.90;;;;;;5034882;28;20072;-80
2023/03/29 03:49:04;;;;;;;4.90;1.80;;;7.90;99.90;;;;;;5036367;28;20027;-79
2023/03/29 03:51:30;;;;;;;7.35;2.03;;;7.90;99.90;;;;;;5035230;28;20052;-79
2023/03/29 03:53:55;;;;;;;4.25;2.05;;;7.90;99.90;;;;;;5035075;28;20036;-79
2023/03/29 03:56:21;;;;;;;1.88;1.67;;;7.90;99.90;;;;;;5036425;28;20136;-79
2023/03/29 03:58:46;;;;;;;4.45;2.25;;;7.90;99.90;;;;;;5051344;28;20121;-79
2023/03/29 04:01:12;;;;;;;5.45;2.00;;;7.90;99.90;;;;;;5034713;28;20072;-80
2023/03/29 04:03:38;;;;;;;3.03;2.05;;;7.90;99.90;;;;;;5035637;28;20028;-79
2023/03/29 04:06:04;;;;;;;6.38;2.17;;;7.90;99.90;;;;;;5034757;28;20079;-79
2023/03/29 04:08:30;;;;;;;3.67;1.92;;;7.90;99.90;;;;;;5034912;28;20032;-79
2023/03/29 04:10:58;;;;;;;5.95;1.67;;;8.00;99.90;;;;;;5034683;28;20029;-78
2023/03/29 04:13:25;;;;;;;3.13;2.05;;;8.00;99.90;;;;;;5048373;28;20470;-79
2023/03/29 04:15:55;;;;;;;8.52;2.28;;;8.10;99.90;;;;;;5054417;28;20056;-79
2023/03/29 04:18:22;;;;;;;4.00;2.03;;;8.10;99.90;;;;;;5046800;28;20027;-79
2023/03/29 04:20:48;;;;;;;3.33;2.53;;;8.00;99.90;;;;;;5050632;28;20132;-79
2023/03/29 04:23:15;;;;;;;3.72;1.90;;;8.00;99.90;;;;;;5053767;28;20017;-79
2023/03/29 04:25:41;;;;;;;5.95;2.10;;;8.00;99.90;;;;;;5054707;28;20056;-79
2023/03/29 04:28:08;;;;;;;9.98;2.08;;;8.00;99.90;;;;;;5054269;28;20053;-79
2023/03/29 04:30:34;;;;;;;2.78;1.92;;;8.10;99.90;;;;;;5053573;28;20074;-79
2023/03/29 04:33:00;;;;;;;12.95;2.80;;;8.10;99.90;;;;;;5046168;28;20425;-78
2023/03/29 04:35:25;;;;;;;5.68;2.20;;;8.00;99.90;;;;;;5045132;28;20029;-79
2023/03/29 04:37:53;;;;;;;10.25;2.20;;;8.10;99.90;;;;;;5035933;28;20187;-77
2023/03/29 04:40:19;;;;;;;2.58;2.20;;;8.10;99.90;;;;;;5033964;28;20083;-77
2023/03/29 04:42:46;;;;;;;4.97;2.33;;;8.10;99.90;;;;;;5035193;28;20033;-78
2023/03/29 04:45:16;;;;;;;7.60;2.20;;;8.10;99.90;;;;;;5047728;28;20478;-78
2023/03/29 04:47:44;;;;;;;7.22;2.63;;;8.10;99.90;;;;;;5048790;28;20282;-79
2023/03/29 04:50:11;;;;;;;2.20;1.63;;;8.10;99.90;;;;;;5033849;28;20045;-78
2023/03/29 04:52:36;;;;;;;4.75;2.10;;;8.10;99.90;;;;;;5034996;28;20264;-78
2023/03/29 04:55:04;;;;;;;3.47;2.28;;;8.20;99.90;;;;;;5033155;28;20025;-79
2023/03/29 04:57:30;;;;;;;8.80;2.22;;;8.10;99.90;;;;;;5034591;28;20032;-79
2023/03/29 04:59:56;;;;;;;7.22;2.83;;;8.20;99.90;;;;;;5033481;28;20029;-79
2023/03/29 05:02:22;;;;;;;4.20;2.10;;;8.20;99.90;;;;;;5033602;28;20071;-80
2023/03/29 05:04:48;;;;;;;12.20;2.13;;;8.20;99.90;;;;;;5033478;28;20468;-79
2023/03/29 05:07:14;;;;;;;4.60;2.10;;;8.20;99.90;;;;;;5034745;28;20408;-79
2023/03/29 05:09:40;;;;;;;6.22;2.38;;;8.20;99.90;;;;;;5037745;28;20022;-80
2023/03/29 05:12:06;;;;;;;3.58;1.85;;;8.20;99.90;;;;;;5052085;28;20024;-80
2023/03/29 05:14:32;;;;;;;4.00;2.33;;;8.20;99.90;;;;;;5054584;28;20109;-79
2023/03/29 05:16:57;;;;;;;2.25;1.98;;;8.20;99.90;;;;;;5053205;28;20112;-79
2023/03/29 05:19:24;;;;;;;10.18;2.58;;;8.30;99.90;;;;;;5048477;28;20037;-79
2023/03/29 05:21:50;;;;;;;8.07;2.70;;;8.20;99.90;;;;;;5033090;28;20034;-80
2023/03/29 05:24:16;;;;;;;6.90;2.55;;;8.20;99.90;;;;;;5033155;28;20021;-80
2023/03/29 05:26:42;;;;;;;7.88;2.85;;;8.20;99.90;;;;;;5034482;28;20014;-79
2023/03/29 05:29:08;;;;;;;5.75;2.20;;;8.20;99.90;;;;;;5034314;28;20045;-79
2023/03/29 05:31:36;;;;;;;3.50;2.00;;;8.30;99.90;;;;;;5032860;28;20371;-80
2023/03/29 05:34:03;;;;;;;5.38;2.70;;;8.30;99.90;;;;;;5033477;28;20497;-79
2023/03/29 05:36:28;;;;;;;5.43;2.58;;;8.30;99.90;;;;;;5033132;28;20041;-79
2023/03/29 05:38:55;;;;;;;4.68;2.97;;;8.30;99.90;;;;;;5033958;28;20492;-80
2023/03/29 05:41:22;;;;;;;8.02;2.85;;;8.40;99.90;;;;;;5034375;28;20033;-81
2023/03/29 05:43:48;;;;;;;5.95;2.42;;;8.30;99.90;;;;;;5049370;28;20549;-80
2023/03/29 05:46:14;;;;;;;5.22;2.63;;;8.40;99.90;;;;;;5045633;28;20109;-79
2023/03/29 05:48:40;;;;;;;2.80;2.35;;;8.40;99.90;;;;;;5041653;28;20025;-79
2023/03/29 05:51:06;;;;;;;5.13;2.60;;;8.40;99.90;;;;;;5035325;28;20020;-80
2023/03/29 05:53:32;;;;;;;7.28;2.65;;;8.50;99.90;;;;;;5052320;28;20028;-81
2023/03/29 05:55:57;;;;;;;10.68;2.53;;;8.50;99.90;;;;;;5053739;28;20025;-80
2023/03/29 05:58:25;;;;;;;10.88;3.65;;;8.50;99.90;;;;;;5051773;28;20059;-80
2023/03/29 06:00:51;;;;;;;3.75;2.42;;;8.50;99.90;;;;;;5052598;28;20040;-80
2023/03/29 06:03:20;;;;;;;5.43;2.88;;;8.50;99.90;;;;;;5051044;28;20527;-81
2023/03/29 06:05:48;;;;;;;5.40;3.00;;;8.50;99.90;;;;;;5052635;28;20389;-79
2023/03/29 06:08:14;;;;;;;;;;;8.50;99.90;;;;;;5051647;28;20021;-80
2023/03/29 06:10:41;;;;;;;4.53;2.55;;;8.50;99.90;;;;;;5053461;28;20019;-80
2023/03/29 06:13:06;;;;;;;11.15;3.13;;;8.60;99.90;;;;;;5052105;28;20112;-79
2023/03/29 06:15:33;;;;;;;7.15;3.38;;;8.60;99.90;;;;;;5053196;28;20065;-79
2023/03/29 06:18:03;;;;;;;6.15;2.13;;;8.70;99.90;;;;;;5040019;28;20033;-79
2023/03/29 06:20:28;;;;;;;5.35;2.90;;;8.80;99.90;;;;;;5032859;28;20033;-79
2023/03/29 06:22:54;;;;;;;7.65;2.63;;;8.80;99.90;;;;;;5048636;28;20021;-80
2023/03/29 06:25:20;;;;;;;4.25;2.85;;;8.80;99.90;;;;;;5032114;28;20025;-79
2023/03/29 06:27:46;;;;;;;4.32;2.53;;;8.90;99.90;;;;;;5040791;28;20147;-79
2023/03/29 06:30:14;;;;;;;6.60;2.67;;;8.90;99.90;;;;;;5048917;28;20067;-78
2023/03/29 06:32:40;;;;;;;5.43;3.03;;;8.90;99.90;;;;;;5045142;28;20017;-79
2023/03/29 06:35:06;;;;;;;7.78;2.67;;;8.90;99.90;;;;;;5038716;28;20577;-79
2023/03/29 06:37:32;;;;;;;6.13;2.92;;;9.00;99.90;;;;;;5038486;28;20049;-79
2023/03/29 06:39:58;;;;;;;11.00;3.08;;;9.00;99.90;;;;;;5051656;28;20114;-79
2023/03/29 06:42:24;;;;;;;4.03;2.55;;;9.10;99.90;;;;;;5044233;28;20034;-80
2023/03/29 06:44:50;;;;;;;9.80;3.00;;;9.20;99.90;;;;;;5049802;28;20051;-80
2023/03/29 06:47:16;;;;;;;7.70;3.17;;;9.30;99.90;;;;;;5051336;28;20072;-80
2023/03/29 06:49:42;;;;;;;5.60;2.78;;;9.30;99.90;;;;;;5051226;28;20551;-80
2023/03/29 06:52:08;;;;;;;8.32;3.72;;;9.30;99.90;;;;;;5048251;28;20473;-79
2023/03/29 06:54:34;;;;;;;7.93;3.13;;;9.40;99.90;;;;;;5041487;28;20020;-78
2023/03/29 06:57:00;;;;;;;8.32;3.33;;;9.40;99.90;;;;;;5052641;28;20021;-79
2023/03/29 06:59:25;;;;;;;7.25;3.40;;;9.50;99.90;;;;;;5034798;28;20100;-78
2023/03/29 07:01:55;;;;;;;6.78;3.83;;;9.60;99.90;;;;;;5033251;28;20460;-79
2023/03/29 07:04:23;;;;;;;5.47;3.13;;;9.60;99.90;;;;;;5031612;28;20022;-77
2023/03/29 07:07:00;;;;;;;9.43;3.05;;;9.70;99.90;;;;;;5032475;28;20072;-78
2023/03/29 07:09:28;;;;;;;6.43;3.22;;;9.70;99.90;;;;;;5032852;28;20100;-79
2023/03/29 07:11:57;;;;;;;7.57;3.15;;;9.70;99.90;;;;;;5031178;28;20053;-79
2023/03/29 07:14:30;;;;;;;7.38;3.40;;;9.70;99.90;;;;;;5032756;28;20478;-80
2023/03/29 07:16:59;;;;;;;6.38;2.80;;;9.70;99.90;;;;;;5031547;28;20397;-79
2023/03/29 07:19:26;;;;;;;5.05;3.63;;;9.90;99.90;;;;;;5031488;28;20083;-78
2023/03/29 07:21:53;;;;;;;5.57;3.78;;;9.90;99.90;;;;;;5031384;28;20025;-78
2023/03/29 07:24:20;;;;;;;6.38;3.50;;;9.90;99.90;;;;;;5039085;28;20063;-78
2023/03/29 07:26:47;;;;;;;7.72;3.03;;;10.00;99.90;;;;;;5044452;28;20120;-79
2023/03/29 07:29:12;;;;;;;8.68;3.72;;;9.90;99.90;;;;;;5039854;28;20017;-78
2023/03/29 07:31:40;;;;;;;5.63;2.88;;;10.00;99.90;;;;;;5050030;28;20508;-77
2023/03/29 07:34:09;;;;;;;9.48;3.47;;;10.10;99.90;;;;;;5050056;28;20021;-78
2023/03/29 07:36:39;;;;;;;7.15;3.67;;;10.20;99.90;;;;;;5031483;28;20425;-77
2023/03/29 07:39:07;;;;;;;6.55;3.70;;;10.30;99.90;;;;;;5031243;28;20075;-78
2023/03/29 07:41:33;;;;;;;6.28;3.78;;;10.40;99.90;;;;;;5032435;28;20060;-78
2023/03/29 07:44:03;;;;;;;10.35;4.20;;;10.40;99.90;;;;;;5032575;28;20041;-77
2023/03/29 07:46:30;;;;;;;7.57;4.65;;;10.50;99.90;;;;;;5039875;28;20029;-78
2023/03/29 07:48:56;;;;;;;9.55;3.72;;;10.50;99.90;;;;;;5032997;28;20079;-79
2023/03/29 07:51:22;;;;;;;8.63;4.00;;;10.50;99.90;;;;;;5034513;28;20020;-78
2023/03/29 07:53:48;;;;;;;9.73;4.97;;;10.50;99.90;;;;;;5033793;28;20083;-78
2023/03/29 07:56:14;;;;;;;13.27;5.05;;;10.60;99.90;;;;;;5035271;28;20355;-79
2023/03/29 07:58:40;;;;;;;11.05;4.30;;;10.60;99.90;;;;;;5035613;28;20109;-79
2023/03/29 08:01:07;;;;;;;6.25;3.70;;;10.60;99.90;;;;;;5031775;28;20044;-78
2023/03/29 08:03:33;;;;;;;13.13;3.83;;;10.60;99.90;;;;;;5044888;28;20359;-79
2023/03/29 08:06:01;;;;;;;9.70;3.90;;;10.70;99.90;;;;;;5054527;28;20021;-79
2023/03/29 08:08:27;;;;;;;6.43;3.47;;;10.70;99.90;;;;;;5046287;28;20025;-80
2023/03/29 08:10:53;;;;;;;10.77;4.50;;;10.70;99.90;;;;;;5039946;28;20079;-79
2023/03/29 08:13:18;;;;;;;11.95;3.90;;;10.70;99.90;;;;;;5050159;28;20665;-79
2023/03/29 08:15:47;;;;;;;7.22;4.18;;;10.80;99.90;;;;;;5050224;28;20024;-79
2023/03/29 08:18:13;;;;;;;6.55;4.63;;;10.80;99.90;;;;;;5047735;28;20398;-79
2023/03/29 08:20:41;;;;;;;10.30;4.88;;;10.80;99.90;;;;;;5033965;28;20021;-79
2023/03/29 08:23:07;;;;;;;15.65;4.68;;;10.90;99.90;;;;;;5033083;28;20049;-79
2023/03/29 08:25:34;;;;;;;10.65;4.82;;;11.10;99.90;;;;;;5037222;28;20104;-80
2023/03/29 08:27:59;;;;;;;11.23;4.85;;;11.10;99.90;;;;;;5034256;28;20042;-78
2023/03/29 08:30:25;;;;;;;10.32;5.40;;;11.00;99.90;;;;;;5045039;28;20021;-80
2023/03/29 08:32:52;;;;;;;12.85;4.60;;;11.10;99.90;;;;;;5035618;28;20040;-77
2023/03/29 08:35:18;;;;;;;7.55;4.47;;;11.10;99.90;;;;;;5055753;28;20497;-78
2023/03/29 08:37:44;;;;;;;6.88;4.38;;;11.20;99.90;;;;;;5033981;28;20533;-77
2023/03/29 08:40:22;;;;;;;6.45;4.47;;;11.20;99.90;;;;;;5048383;28;20037;-80
2023/03/29 08:43:00;;;;;;;;;;;11.20;99.90;;;;;;5050472;28;20032;-77
2023/03/29 08:45:47;;;;;;;8.15;4.72;;;11.30;99.90;;;;;;5040614;28;20262;-82
2023/03/29 08:48:32;;;;;;;11.00;4.57;;;11.40;99.90;;;;;;5044260;28;20088;-79
2023/03/29 08:51:24;;;;;;;14.23;4.10;;;11.40;99.90;;;;;;5053361;28;20405;-80
2023/03/29 08:54:02;;;;;;;10.43;4.70;;;11.40;99.90;;;;;;5053634;28;20053;-80
2023/03/29 08:56:30;;;;;;;;;;;11.60;99.90;;;;;;5035491;28;20423;-79
2023/03/29 08:58:56;;;;;;;8.77;4.63;;;11.70;99.90;;;;;;5034566;28;19952;-81
2023/03/29 09:01:24;;;;;;;9.13;4.95;;;11.80;99.90;;;;;;5045646;28;20544;-78
2023/03/29 09:04:20;;;;;;;12.30;5.53;;;11.80;99.90;;;;;;5044984;28;20063;-79
2023/03/29 09:06:46;;;;;;;13.93;5.00;;;11.90;99.90;;;;;;5043578;28;20436;-79
2023/03/29 09:09:16;;;;;;;14.82;5.13;;;11.90;99.90;;;;;;5040648;28;20021;-80
2023/03/29 09:12:07;;;;;;;12.30;4.78;;;12.00;99.90;;;;;;5053794;28;20067;-85
2023/03/29 09:14:57;;;;;;;13.95;6.22;;;12.20;99.90;;;;;;5053375;28;20537;-81
2023/03/29 09:17:57;;;;;;;9.50;4.93;;;12.30;99.90;;;;;;5043369;28;20029;-81
2023/03/29 09:20:28;;;;;;;10.73;4.80;;;12.30;99.90;;;;;;5049478;28;20025;-81
2023/03/29 09:22:57;;;;;;;15.70;5.38;;;12.40;99.90;;;;;;5044662;28;20032;-80
2023/03/29 09:25:46;;;;;;;13.18;5.03;;;12.40;99.90;;;;;;5052366;28;20033;-78
2023/03/29 09:28:15;;;;;;;10.43;5.25;;;12.30;99.90;;;;;;5038926;28;20025;-80
2023/03/29 09:30:48;;;;;;;12.70;5.30;;;12.30;99.90;;;;;;5041480;28;20079;-81
2023/03/29 09:33:30;;;;;;;8.27;5.30;;;12.20;99.90;;;;;;5033621;28;20128;-79
2023/03/29 09:36:06;;;;;;;11.02;5.05;;;12.20;99.90;;;;;;5035201;28;20065;-78
2023/03/29 09:38:36;;;;;;;9.02;5.38;;;12.30;99.90;;;;;;5043258;28;20021;-78
2023/03/29 09:41:37;;;;;;;10.18;5.97;;;12.30;99.90;;;;;;5040389;28;20068;-77
2023/03/29 09:44:09;;;;;;;15.38;5.32;;;12.50;99.90;;;;;;5038326;28;20116;-79
2023/03/29 09:47:08;;;;;;;15.23;6.15;;;12.70;99.90;;;;;;5042202;28;20532;-80
2023/03/29 09:49:39;;;;;;;16.60;5.88;;;12.70;99.90;;;;;;5031581;28;20558;-81
2023/03/29 09:52:11;;;;;;;10.23;5.72;;;12.70;99.90;;;;;;5037435;28;20111;-80
2023/03/29 09:54:37;;;;;;;13.27;6.22;;;12.80;99.90;;;;;;5038770;28;20053;-79
2023/03/29 09:57:03;;;;;;;10.68;6.40;;;12.80;99.90;;;;;;5046370;28;20059;-81
2023/03/29 09:59:29;;;;;;;19.27;7.13;;;12.80;99.90;;;;;;5035652;28;20017;-80
2023/03/29 10:02:06;;;;;;;11.38;5.97;;;12.90;99.90;;;;;;5037327;28;20147;-81
2023/03/29 10:04:32;;;;;;;15.27;6.53;;;13.00;99.90;;;;;;5041226;28;20065;-80
2023/03/29 10:06:58;;;;;;;15.15;6.65;;;13.00;99.90;;;;;;5033564;28;20024;-80
2023/03/29 10:09:55;;;;;;;12.27;6.97;;;13.00;99.90;;;;;;5044066;28;20022;-80
2023/03/29 10:12:22;;;;;;;9.43;6.22;;;13.00;99.90;;;;;;5032257;28;20536;-80
2023/03/29 10:14:49;;;;;;;13.60;5.85;;;13.00;99.90;;;;;;5033495;28;20063;-78
2023/03/29 10:17:24;;;;;;;9.43;5.67;;;12.90;99.90;;;;;;5037041;28;20057;-79
2023/03/29 10:19:57;;;;;;;10.95;5.40;;;12.90;99.90;;;;;;5038342;28;20348;-80
2023/03/29 10:22:25;;;;;;;12.98;6.22;;;12.90;99.90;;;;;;5033344;28;20100;-83
2023/03/29 10:24:53;;;;;;;13.50;6.22;;;12.80;99.90;;;;;;5031526;28;20042;-80
2023/03/29 10:27:25;;;;;;;13.85;6.75;;;12.90;99.90;;;;;;5033506;28;20022;-82
2023/03/29 10:29:53;;;;;;;14.23;6.35;;;13.00;99.90;;;;;;5032174;28;20021;-82
2023/03/29 10:32:34;;;;;;;11.15;6.18;;;13.00;99.90;;;;;;5032669;28;20037;-83
2023/03/29 10:35:16;;;;;;;10.90;6.13;;;13.00;99.90;;;;;;5031997;28;20076;-86
2023/03/29 10:37:43;;;;;;;9.18;5.68;;;12.90;99.90;;;;;;5050229;28;20385;-84
2023/03/29 10:40:27;;;;;;;11.48;6.10;;;13.00;99.90;;;;;;5043979;28;20025;-80
2023/03/29 10:42:58;;;;;;;12.73;6.93;;;13.00;99.90;;;;;;5033926;28;20033;-81
2023/03/29 10:45:32;;;;;;;11.57;5.68;;;13.00;99.90;;;;;;5038429;28;20053;-83
2023/03/29 10:47:58;;;;;;;8.82;5.65;;;13.00;99.90;;;;;;5033371;28;20501;-78
2023/03/29 10:50:31;;;;;;;8.98;5.38;;;13.00;99.90;;;;;;5033641;28;20022;-78
2023/03/29 10:52:56;;;;;;;8.15;5.07;;;12.90;99.90;;;;;;5045019;28;20495;-81
2023/03/29 10:55:27;;;;;;;10.52;5.07;;;12.90;99.90;;;;;;5032212;28;20090;-83
2023/03/29 10:57:59;;;;;;;8.02;5.13;;;12.90;99.90;;;;;;5038129;28;20030;-82
2023/03/29 11:00:42;;;;;;;10.80;5.32;;;12.90;99.90;;;;;;5042680;28;20032;-78
2023/03/29 11:03:47;;;;;;;7.95;5.40;;;12.90;99.90;;;;;;5035325;28;20391;-77
2023/03/29 11:06:21;;;;;;;11.98;5.50;;;12.90;99.90;;;;;;5033359;28;20021;-79
2023/03/29 11:08:55;;;;;;;13.52;5.85;;;12.80;99.90;;;;;;5040614;28;20074;-79
2023/03/29 11:11:43;;;;;;;9.88;5.80;;;12.70;99.90;;;;;;5037549;28;20025;-78
2023/03/29 11:14:29;;;;;;;11.02;6.63;;;12.70;99.90;;;;;;5032748;28;20025;-79
2023/03/29 11:16:58;;;;;;;11.90;6.47;;;12.80;99.90;;;;;;5038805;28;20034;-79
2023/03/29 11:19:24;;;;;;;12.77;6.40;;;12.90;99.90;;;;;;5042941;28;20136;-77
2023/03/29 11:21:57;;;;;;;13.45;6.88;;;13.00;99.90;;;;;;5031651;28;20113;-77
2023/03/29 11:24:38;;;;;;;12.60;7.72;;;13.00;99.90;;;;;;5041545;28;20025;-77
2023/03/29 11:27:38;;;;;;;10.30;6.13;;;13.00;99.90;;;;;;5033826;28;20026;-79
2023/03/29 11:30:23;;;;;;;14.32;6.80;;;13.10;99.90;;;;;;5039031;28;20090;-79
2023/03/29 11:33:18;;;;;;;16.25;8.23;;;13.00;99.90;;;;;;5035798;28;20033;-80
2023/03/29 11:35:53;;;;;;;14.38;7.38;;;13.00;99.90;;;;;;5032991;28;20021;-80
2023/03/29 11:38:48;;;;;;;8.38;6.35;;;13.00;99.90;;;;;;5035585;28;20029;-79
2023/03/29 11:41:24;;;;;;;12.52;7.70;;;13.10;99.90;;;;;;5036765;28;20040;-79
2023/03/29 11:44:12;;;;;;;10.02;7.00;;;13.20;99.90;;;;;;5046782;28;20057;-79
2023/03/29 11:47:15;;;;;;;13.45;7.25;;;13.30;99.90;;;;;;5050767;28;20112;-82
2023/03/29 11:49:56;;;;;;;12.68;7.43;;;13.40;99.90;;;;;;5046874;28;20025;-83
2023/03/29 11:52:44;;;;;;;11.52;7.38;;;13.40;99.90;;;;;;5049721;28;20076;-82
2023/03/29 11:55:18;;;;;;;15.23;7.95;;;13.40;99.90;;;;;;5040593;28;20029;-83
2023/03/29 11:58:02;;;;;;;12.63;7.68;;;13.40;99.90;;;;;;5041566;28;20390;-83
2023/03/29 12:00:39;;;;;;;9.63;6.25;;;13.50;99.90;;;;;;5050683;28;20412;-83
2023/03/29 12:03:12;;;;;;;13.73;8.15;;;13.50;99.90;;;;;;5046490;28;20033;-82
2023/03/29 12:05:49;;;;;;;18.83;8.35;;;13.50;99.90;;;;;;5038154;28;20389;-81
2023/03/29 12:08:24;;;;;;;15.32;7.93;;;13.30;99.90;;;;;;5051787;28;20401;-81
2023/03/29 12:11:08;;;;;;;15.95;8.93;;;13.10;99.90;;;;;;5055784;28;20036;-81
2023/03/29 12:13:41;;;;;;;11.75;6.97;;;12.90;99.90;;;;;;5056558;28;20473;-81
2023/03/29 12:16:32;;;;;;;29.55;8.98;;;12.70;99.90;;;;;;5056624;28;20110;-83
2023/03/29 12:19:04;;;;;;;14.77;8.10;;;12.60;99.90;;;;;;5057448;28;20071;-82
2023/03/29 12:21:33;;;;;;;12.40;7.78;;;12.60;99.90;;;;;;5036616;28;20489;-83
2023/03/29 12:23:59;;;;;;;14.10;8.73;;;12.60;99.90;;;;;;5041702;28;20018;-82
2023/03/29 12:26:43;;;;;;;21.23;8.27;;;12.50;99.90;;;;;;5044494;28;20033;-83
2023/03/29 12:29:54;;;;;;;13.68;8.30;;;12.50;99.90;;;;;;5054514;28;20022;-83
2023/03/29 12:32:20;;;;;;;19.40;9.23;;;12.50;99.90;;;;;;5033088;28;20029;-83
2023/03/29 12:34:58;;;;;;;18.20;8.88;;;12.60;99.90;;;;;;5048825;28;20036;-85
2023/03/29 12:37:48;;;;;;;19.27;9.32;;;12.60;99.90;;;;;;5055509;28;20025;-82
2023/03/29 12:40:16;;;;;;;11.32;7.50;;;12.60;99.90;;;;;;5045979;28;20033;-83
2023/03/29 12:42:52;;;;;;;;;;;12.70;99.90;;;;;;5034328;28;20112;-82
2023/03/29 12:45:41;;;;;;;11.85;6.32;;;12.80;99.90;;;;;;5037054;28;20007;-83
2023/03/29 12:48:31;;;;;;;12.32;6.40;;;12.90;99.90;;;;;;5033251;28;20022;-82
2023/03/29 12:51:02;;;;;;;9.75;5.25;;;13.00;99.90;;;;;;5036361;28;20083;-82
2023/03/29 12:54:09;;;;;;;10.82;6.55;;;13.20;99.90;;;;;;5052758;28;20428;-84
2023/03/29 12:56:56;;;;;;;16.00;6.68;;;13.30;99.90;;;;;;5055289;28;20407;-78
2023/03/29 12:59:36;;;;;;;12.35;5.18;;;13.60;99.90;;;;;;5040406;28;20524;-88
2023/03/29 13:02:15;;;;;;;7.30;5.10;;;13.80;99.90;;;;;;5049811;28;20068;-87
2023/03/29 13:04:59;;;;;;;9.13;5.70;;;13.90;99.90;;;;;;5034865;28;20025;-84
2023/03/29 13:07:30;;;;;;;9.10;5.88;;;14.00;99.90;;;;;;5035438;28;20037;-74
2023/03/29 13:10:02;;;;;;;11.75;5.10;;;14.10;99.90;;;;;;5037454;28;20723;-77
2023/03/29 13:12:29;;;;;;;12.40;5.30;;;14.20;99.90;;;;;;5042612;28;20128;-78
2023/03/29 13:14:59;;;;;;;14.45;5.78;;;14.30;99.90;;;;;;5034736;28;20029;-77
2023/03/29 13:17:39;;;;;;;8.07;5.72;;;14.30;99.90;;;;;;5041567;28;20057;-80